Kingsley Field, Oregon
Current Conditions -  °F | °C
As of 1:53 PM on Thursday 27 Nov 2014 (Local Time) from KLMT Reporting Station
Clear Clear  
Wind Chill: 57°   Ceiling: Unl
Heat Index: 57°   Visibility: 10mi
Dew Point: 25°   Wind: 17mph
Humidity: 29%   Direction: 180°S
Pressure: 30.05"   Gusts: NA
Location:  42.2527°N, 121.834°W
Report Text: KLMT 272153Z 18015KT 10SM CLR 14/M04 A3005 RMK AO2 SLP164 T01391039
Loading
Personal Weather Stations






























Interactive Weather Map New forecast layout! Learn more

10-Day Weather Forecast

Advertisements
Track Severe Weather on mobile